createdAt,value
2019-03-31T00:02:59.580Z,102306.98
2019-03-31T00:08:01.720Z,102300.70
2019-03-31T00:13:03.932Z,102315.44
2019-03-31T00:18:07.126Z,102320.88
2019-03-31T00:23:09.487Z,102313.44
2019-03-31T00:28:11.740Z,102312.71
2019-03-31T00:33:13.978Z,102320.69
2019-03-31T00:38:16.282Z,102316.34
2019-03-31T00:43:18.464Z,102324.02
2019-03-31T00:48:20.723Z,102320.38
2019-03-31T00:53:22.948Z,102323.50
2019-03-31T00:58:25.588Z,102323.59
2019-03-31T01:03:28.141Z,102323.20
2019-03-31T01:08:31.090Z,102317.34
2019-03-31T01:13:33.268Z,102321.98
2019-03-31T01:18:35.436Z,102323.20
2019-03-31T01:23:37.699Z,102325.30
2019-03-31T01:28:39.837Z,102327.61
2019-03-31T01:33:42.156Z,102323.39
2019-03-31T01:38:44.432Z,102318.88
2019-03-31T01:43:46.599Z,102315.93
2019-03-31T01:48:49.881Z,102316.42
2019-03-31T01:53:52.216Z,102325.91
2019-03-31T01:58:54.417Z,102336.70
2019-03-31T02:03:56.545Z,102337.06
2019-03-31T02:08:59.205Z,102333.20
2019-03-31T02:14:01.371Z,102335.39
2019-03-31T02:19:03.641Z,102337.67
2019-03-31T02:24:06.292Z,102335.97
2019-03-31T02:29:08.469Z,102331.83
2019-03-31T02:34:10.649Z,102330.09
2019-03-31T02:39:12.903Z,102339.20
2019-03-31T02:44:15.094Z,102350.77
2019-03-31T02:49:17.223Z,102347.11
2019-03-31T02:54:20.930Z,102350.16
2019-03-31T02:59:23.183Z,102358.50
2019-03-31T03:04:25.455Z,102359.33
2019-03-31T03:09:27.712Z,102360.24
2019-03-31T03:14:32.431Z,102349.67
2019-03-31T03:19:34.553Z,102360.67
2019-03-31T03:24:36.727Z,102366.52
2019-03-31T03:29:38.918Z,102376.61
2019-03-31T03:34:41.392Z,102374.20
2019-03-31T03:39:43.684Z,102377.88
2019-03-31T03:44:47.026Z,102385.65
2019-03-31T03:49:49.183Z,102389.52
2019-03-31T03:54:51.454Z,102396.88
2019-03-31T03:59:54.065Z,102400.03
2019-03-31T04:04:56.791Z,102391.80
2019-03-31T04:10:00.428Z,102406.33
2019-03-31T04:15:02.721Z,102410.09
2019-03-31T04:20:05.433Z,102416.95
2019-03-31T04:25:07.597Z,102416.78
2019-03-31T04:30:09.762Z,102393.75
2019-03-31T04:35:12.367Z,102433.51
2019-03-31T04:40:14.576Z,102435.89
2019-03-31T04:45:16.806Z,102434.88
2019-03-31T04:50:18.927Z,102435.52
2019-03-31T04:55:21.070Z,102443.34
2019-03-31T05:00:23.276Z,102446.97
2019-03-31T05:05:25.511Z,102445.38
2019-03-31T05:10:27.658Z,102441.16
2019-03-31T05:15:29.856Z,102449.92
2019-03-31T05:20:32.123Z,102454.91
2019-03-31T05:25:34.280Z,102467.89
2019-03-31T05:30:36.564Z,102479.70
2019-03-31T05:35:38.785Z,102483.81
2019-03-31T05:40:41.059Z,102489.04
2019-03-31T05:45:43.569Z,102491.21
2019-03-31T05:50:46.096Z,102491.55
2019-03-31T05:55:48.254Z,102495.16
2019-03-31T06:00:50.904Z,102500.09
2019-03-31T06:05:54.469Z,102514.34
2019-03-31T06:10:56.618Z,102516.47
2019-03-31T06:15:58.793Z,102522.43
2019-03-31T06:21:00.999Z,102529.11
2019-03-31T06:26:03.162Z,102535.69
2019-03-31T06:31:05.430Z,102538.61
2019-03-31T06:36:12.456Z,102546.52
2019-03-31T06:41:14.701Z,102568.31
2019-03-31T06:46:16.842Z,102577.45
2019-03-31T06:51:19.232Z,102577.03
2019-03-31T06:56:21.396Z,102578.70
2019-03-31T07:01:24.411Z,102577.94
2019-03-31T07:06:26.601Z,102580.70
2019-03-31T07:11:28.820Z,102589.57
2019-03-31T07:16:31.444Z,102612.20
2019-03-31T07:21:33.671Z,102607.75
2019-03-31T07:26:37.745Z,102611.90
2019-03-31T07:31:39.915Z,102613.13
2019-03-31T07:36:42.158Z,102617.92
2019-03-31T07:41:45.553Z,102619.45
2019-03-31T07:46:47.773Z,102619.09
2019-03-31T07:51:50.186Z,102614.00
2019-03-31T07:56:53.160Z,102626.00
2019-03-31T08:01:56.106Z,102622.56
2019-03-31T08:06:58.307Z,102626.49
2019-03-31T08:12:00.955Z,102624.96
2019-03-31T08:17:03.276Z,102632.80
2019-03-31T08:22:05.580Z,102637.63
2019-03-31T08:27:07.775Z,102647.24
2019-03-31T08:32:10.110Z,102646.63
2019-03-31T08:37:12.413Z,102659.91
2019-03-31T08:42:14.581Z,102657.97
2019-03-31T08:47:17.239Z,102663.17
2019-03-31T08:52:19.420Z,102661.96
2019-03-31T08:57:21.616Z,102673.76
2019-03-31T09:02:24.122Z,102675.62
2019-03-31T09:07:26.311Z,102683.11
2019-03-31T09:12:28.429Z,102690.48
2019-03-31T09:17:30.658Z,102692.74
2019-03-31T09:22:33.054Z,102693.56
2019-03-31T09:27:35.299Z,102691.10
2019-03-31T09:32:37.617Z,102702.99
2019-03-31T09:37:39.763Z,102707.21
2019-03-31T09:42:41.903Z,102705.22
2019-03-31T09:47:44.210Z,102710.81
2019-03-31T09:52:46.428Z,102710.08
2019-03-31T09:57:48.551Z,102697.30
2019-03-31T10:02:50.748Z,102688.02
2019-03-31T10:07:53.318Z,102685.70
2019-03-31T10:12:55.494Z,102691.28
2019-03-31T10:17:57.628Z,102690.86
2019-03-31T10:22:59.844Z,102692.76
2019-03-31T10:28:02.140Z,102685.40
2019-03-31T10:33:04.489Z,102689.63
2019-03-31T10:38:07.027Z,102701.72
2019-03-31T10:43:09.207Z,102705.02
2019-03-31T10:48:20.373Z,102711.16
2019-03-31T10:53:15.377Z,102710.01
2019-03-31T10:58:17.525Z,102705.36
2019-03-31T11:03:19.678Z,102705.48
2019-03-31T11:08:21.881Z,102706.69
2019-03-31T11:13:24.772Z,102704.98
2019-03-31T11:18:26.911Z,102694.09
2019-03-31T11:23:29.040Z,102705.36
2019-03-31T11:28:31.623Z,102689.58
2019-03-31T11:33:33.940Z,102679.80
2019-03-31T11:38:36.169Z,102680.02
2019-03-31T11:43:38.431Z,102681.48
2019-03-31T11:48:40.596Z,102688.81
2019-03-31T11:53:42.779Z,102685.47
2019-03-31T11:58:44.876Z,102693.81
2019-03-31T12:03:47.233Z,102696.58
2019-03-31T12:08:49.383Z,102688.83
2019-03-31T12:13:51.545Z,102692.66
2019-03-31T12:18:53.764Z,102676.84
2019-03-31T12:23:55.929Z,102678.87
2019-03-31T12:28:58.234Z,102670.94
2019-03-31T12:34:00.528Z,102671.19
2019-03-31T12:39:04.410Z,102663.02
2019-03-31T12:44:07.046Z,102642.09
2019-03-31T12:49:09.259Z,102649.95
2019-03-31T12:54:11.394Z,102653.32
2019-03-31T12:59:13.569Z,102646.42
2019-03-31T13:04:16.160Z,102642.95
2019-03-31T13:09:18.840Z,102640.49
2019-03-31T13:14:21.010Z,102638.51
2019-03-31T13:19:23.782Z,102618.16
2019-03-31T13:24:25.964Z,102632.58
2019-03-31T13:29:28.141Z,102619.75
2019-03-31T13:34:30.393Z,102617.84
2019-03-31T13:39:32.634Z,102609.42
2019-03-31T13:44:35.188Z,102601.78
2019-03-31T13:49:37.689Z,102596.00
2019-03-31T13:54:39.829Z,102598.69
2019-03-31T13:59:41.988Z,102597.62
2019-03-31T14:04:54.502Z,102587.48
2019-03-31T14:09:56.649Z,102583.05
2019-03-31T14:14:58.795Z,102585.92
2019-03-31T14:20:01.003Z,102582.95
2019-03-31T14:25:03.697Z,102584.55
2019-03-31T14:30:05.888Z,102576.61
2019-03-31T14:35:08.068Z,102575.77
2019-03-31T14:40:10.724Z,102580.78
2019-03-31T14:45:27.108Z,102574.83
2019-03-31T14:50:38.919Z,102567.32
2019-03-31T14:55:41.071Z,102569.81
2019-03-31T15:00:43.194Z,102570.97
2019-03-31T15:05:45.428Z,102563.02
2019-03-31T15:10:51.834Z,102572.97
2019-03-31T15:15:53.980Z,102555.06
2019-03-31T15:20:56.170Z,102550.22
2019-03-31T15:25:58.497Z,102552.29
2019-03-31T15:31:00.683Z,102549.02
2019-03-31T15:36:02.831Z,102552.33
2019-03-31T15:41:04.996Z,102543.91
2019-03-31T15:46:07.486Z,102547.11
2019-03-31T15:51:09.716Z,102545.16
2019-03-31T15:56:11.859Z,102552.21
2019-03-31T16:01:15.465Z,102549.89
2019-03-31T16:06:17.735Z,102549.93
2019-03-31T16:11:19.348Z,102547.81
2019-03-31T16:16:20.972Z,102547.89
2019-03-31T16:21:22.583Z,102550.30
2019-03-31T16:26:24.157Z,102545.48
2019-03-31T16:31:25.797Z,102541.59
2019-03-31T16:36:27.459Z,102547.45
2019-03-31T16:41:29.073Z,102552.21
2019-03-31T16:46:30.681Z,102550.84
2019-03-31T16:51:32.336Z,102553.35
2019-03-31T16:56:34.947Z,102560.80
2019-03-31T17:01:36.638Z,102559.84
2019-03-31T17:06:38.299Z,102560.97
2019-03-31T17:11:40.025Z,102562.91
2019-03-31T17:16:41.720Z,102560.48
2019-03-31T17:21:43.351Z,102557.86
2019-03-31T17:26:44.925Z,102560.08
2019-03-31T17:31:47.279Z,102562.09
2019-03-31T17:36:49.173Z,102563.28
2019-03-31T17:41:50.781Z,102563.73
2019-03-31T17:46:52.808Z,102558.15
2019-03-31T17:51:54.869Z,102565.67
2019-03-31T17:56:56.445Z,102570.91
2019-03-31T18:01:58.446Z,102573.45
2019-03-31T18:07:00.042Z,102579.77
2019-03-31T18:12:01.668Z,102577.92
2019-03-31T18:17:03.268Z,102583.33
2019-03-31T18:22:15.828Z,102576.21
2019-03-31T18:27:09.003Z,102584.08
2019-03-31T18:32:10.551Z,102589.07
2019-03-31T18:37:12.228Z,102594.16
2019-03-31T18:42:13.898Z,102589.55
2019-03-31T18:47:15.632Z,102593.61
2019-03-31T18:52:18.014Z,102610.20
2019-03-31T18:57:19.865Z,102605.45
2019-03-31T19:02:24.825Z,102620.39
2019-03-31T19:07:25.064Z,102624.84
2019-03-31T19:12:26.597Z,102625.72
2019-03-31T19:17:28.211Z,102636.07
2019-03-31T19:22:30.021Z,102634.85
2019-03-31T19:27:32.661Z,102647.41
2019-03-31T19:32:34.383Z,102651.17
2019-03-31T19:37:36.070Z,102663.02
2019-03-31T19:42:37.729Z,102667.02
2019-03-31T19:47:39.384Z,102670.05
2019-03-31T19:52:42.037Z,102664.43
2019-03-31T19:57:43.903Z,102668.30
2019-03-31T20:02:46.078Z,102670.24
2019-03-31T20:07:48.057Z,102682.02
2019-03-31T20:12:49.760Z,102688.33
2019-03-31T20:17:51.353Z,102684.51
2019-03-31T20:22:53.304Z,102689.95
2019-03-31T20:27:54.973Z,102688.33
2019-03-31T20:32:56.681Z,102696.14
2019-03-31T20:37:58.246Z,102692.46
2019-03-31T20:42:59.860Z,102694.25
2019-03-31T20:48:01.528Z,102711.19
2019-03-31T20:53:03.434Z,102706.95
2019-03-31T20:58:05.026Z,102719.92
2019-03-31T21:03:06.729Z,102720.23
2019-03-31T21:08:08.362Z,102718.99
2019-03-31T21:13:09.970Z,102718.37
2019-03-31T21:18:11.599Z,102719.58
2019-03-31T21:23:13.263Z,102727.72
2019-03-31T21:28:14.903Z,102725.00
2019-03-31T21:33:16.608Z,102730.40
2019-03-31T21:38:18.621Z,102736.80
2019-03-31T21:43:20.556Z,102739.29
2019-03-31T21:48:22.116Z,102745.07
2019-03-31T21:53:23.770Z,102749.24
2019-03-31T21:58:25.401Z,102748.03
2019-03-31T22:03:27.006Z,102751.56
2019-03-31T22:08:28.660Z,102750.00
2019-03-31T22:13:30.470Z,102741.38
2019-03-31T22:18:32.108Z,102749.20
2019-03-31T22:23:33.884Z,102745.25
2019-03-31T22:28:35.740Z,102743.67
2019-03-31T22:33:37.428Z,102744.43
2019-03-31T22:38:39.364Z,102745.72
2019-03-31T22:43:41.076Z,102745.70
2019-03-31T22:48:43.064Z,102751.41
2019-03-31T22:53:44.704Z,102745.14
2019-03-31T22:58:46.298Z,102740.91
2019-03-31T23:03:47.884Z,102750.39
2019-03-31T23:08:49.486Z,102751.02
2019-03-31T23:13:51.126Z,102749.16
2019-03-31T23:18:52.735Z,102748.09
2019-03-31T23:23:54.330Z,102742.83
2019-03-31T23:28:56.628Z,102746.68
2019-03-31T23:33:58.314Z,102741.96
2019-03-31T23:39:00.024Z,102747.91
2019-03-31T23:44:01.697Z,102740.16
2019-03-31T23:49:03.383Z,102739.59
2019-03-31T23:54:04.995Z,102744.09
2019-03-31T23:59:06.641Z,102735.72
